Time;durP1;ratioP1;P1;durP2;ratioP2;P2;SDS_P1;SDS_P2;PMS_P1;PMS_P2;Temp;Humidity;BMP_temperature;BMP_pressure;BME280_temperature;BME280_humidity;BME280_pressure;Samples;Min_cycle;Max_cycle;Signal;HPM_P1;HPM_P2
2022/12/20 00:01:15;;;;;;;5.72;3.98;;;;;;;1.75;81.60;99563.95;1564684;91;21587;-89
2022/12/20 00:03:45;;;;;;;12.03;3.20;;;;;;;1.81;81.57;99562.58;1564888;91;21059;-94
2022/12/20 00:06:17;;;;;;;4.72;3.45;;;;;;;1.85;81.59;99553.95;1565156;91;21051;-93
2022/12/20 00:08:56;;;;;;;4.28;3.58;;;;;;;1.86;81.80;99564.66;1566374;91;21421;-83
2022/12/20 00:11:26;;;;;;;5.40;3.40;;;;;;;1.87;81.64;99562.48;1676406;85;21070;-90
2022/12/20 00:13:56;;;;;;;4.33;3.00;;;;;;;1.88;81.77;99556.48;1661151;85;20959;-92
2022/12/20 00:16:29;;;;;;;4.22;2.90;;;;;;;1.92;81.94;99556.83;1660984;85;21019;-83
2022/12/20 00:19:02;;;;;;;5.25;3.45;;;;;;;1.99;81.99;99552.47;1658661;85;21066;-96
2022/12/20 00:21:34;;;;;;;3.40;2.60;;;;;;;1.96;81.89;99558.51;1681962;85;21054;-89
2022/12/20 00:24:12;;;;;;;4.67;2.98;;;;;;;1.94;81.84;99548.66;1680734;85;21050;-92
2022/12/20 00:26:45;;;;;;;3.30;2.77;;;;;;;1.96;82.02;99546.92;1681881;85;20994;-95
2022/12/20 00:29:19;;;;;;;4.20;3.02;;;;;;;2.00;82.29;99543.41;1680781;85;21513;-95
2022/12/20 00:31:53;;;;;;;3.65;2.90;;;;;;;2.05;82.32;99538.64;1653472;85;21740;-95
2022/12/20 00:34:29;;;;;;;3.22;2.60;;;;;;;2.14;82.52;99533.34;1681304;85;21029;-85
2022/12/20 00:37:05;;;;;;;3.83;2.80;;;;;;;2.18;82.50;99538.39;1592638;88;21076;-90
2022/12/20 00:39:38;;;;;;;2.67;2.17;;;;;;;2.20;82.58;99540.96;1619572;88;21650;-92
2022/12/20 00:42:07;;;;;;;2.75;2.50;;;;;;;2.21;82.51;99537.50;1599008;88;21072;-92
2022/12/20 00:44:38;;;;;;;4.10;3.02;;;;;;;2.22;82.43;99534.06;1620462;88;21907;-93
2022/12/20 00:47:09;;;;;;;4.12;3.10;;;;;;;2.21;82.54;99527.20;1620695;88;21089;-95
2022/12/20 00:49:42;;;;;;;4.08;2.58;;;;;;;2.24;82.75;99526.73;1620706;88;21721;-92
2022/12/20 00:52:17;;;;;;;2.70;2.45;;;;;;;2.23;82.53;99528.03;1621001;88;21032;-87
2022/12/20 00:54:46;;;;;;;3.30;2.70;;;;;;;2.23;82.70;99517.72;1620750;88;21047;-92
2022/12/20 00:57:18;;;;;;;4.00;2.75;;;;;;;2.30;83.13;99511.61;1604655;87;21035;-95
2022/12/20 00:59:48;;;;;;;3.17;2.85;;;;;;;2.36;82.99;99512.78;1641526;87;21090;-96
2022/12/20 01:02:24;;;;;;;3.58;2.87;;;;;;;2.41;83.20;99514.84;1636363;87;21006;-89
2022/12/20 01:04:58;;;;;;;4.40;4.00;;;;;;;2.46;83.29;99515.63;1639064;87;21419;-94
2022/12/20 01:07:30;;;;;;;3.20;2.62;;;;;;;2.54;83.41;99517.20;1636684;87;21010;-91
2022/12/20 01:10:02;;;;;;;3.72;2.70;;;;;;;2.58;83.19;99511.13;1636323;87;21553;-88
2022/12/20 01:12:36;;;;;;;3.33;2.72;;;;;;;2.55;83.36;99500.84;1636167;87;21555;-93
2022/12/20 01:15:10;;;;;;;3.33;2.70;;;;;;;2.56;83.33;99505.14;1685456;84;21025;-94
2022/12/20 01:17:41;;;;;;;3.08;2.50;;;;;;;2.52;83.27;99513.37;1699021;84;21014;-87
2022/12/20 01:20:14;;;;;;;4.40;2.80;;;;;;;2.53;83.30;99507.78;1698767;84;21002;-96
2022/12/20 01:22:44;;;;;;;3.12;2.75;;;;;;;2.57;83.69;99508.12;1698569;84;20990;-83
2022/12/20 01:25:16;;;;;;;3.98;3.10;;;;;;;2.63;83.79;99506.71;1698390;84;21786;-94
2022/12/20 01:27:49;;;;;;;4.08;3.67;;;;;;;2.65;83.44;99499.81;1698258;84;21026;-88
2022/12/20 01:30:21;;;;;;;4.10;3.70;;;;;;;2.66;83.71;99514.39;1698388;84;21029;-92
2022/12/20 01:32:51;;;;;;;4.17;3.58;;;;;;;2.66;83.65;99514.39;1698486;84;20990;-90
2022/12/20 01:35:23;;;;;;;3.67;3.10;;;;;;;2.62;83.68;99515.33;1698275;84;21033;-90
2022/12/20 01:37:55;;;;;;;5.78;3.15;;;;;;;2.56;83.92;99507.72;1698470;84;20973;-90
2022/12/20 01:40:28;;;;;;;4.85;3.25;;;;;;;2.60;84.18;99499.04;1698287;84;21033;-94
2022/12/20 01:42:58;;;;;;;4.12;2.87;;;;;;;2.60;84.01;99504.20;1697478;84;20989;-91
2022/12/20 01:45:34;;;;;;;4.15;2.90;;;;;;;2.63;84.03;99504.13;1697085;84;21049;-93
2022/12/20 01:48:02;;;;;;;4.30;3.83;;;;;;;2.62;83.84;99506.31;1697666;84;21032;-94
2022/12/20 01:50:35;;;;;;;3.62;3.30;;;;;;;2.57;83.89;99509.41;1698844;84;21086;-93
2022/12/20 01:53:08;;;;;;;3.62;3.10;;;;;;;2.60;84.14;99514.50;1698773;84;20966;-93
2022/12/20 01:55:38;;;;;;;4.15;3.42;;;;;;;2.64;84.37;99501.98;1672797;84;21430;-96
2022/12/20 01:58:12;;;;;;;4.03;3.62;;;;;;;2.66;84.13;99496.34;1693981;84;21050;-87
2022/12/20 02:00:41;;;;;;;3.65;3.20;;;;;;;2.66;84.23;99504.08;1685373;85;21024;-94
2022/12/20 02:03:15;;;;;;;3.95;3.40;;;;;;;2.67;84.18;99499.34;1684874;85;21597;-92
2022/12/20 02:05:47;;;;;;;7.92;4.00;;;;;;;2.60;84.17;99492.15;1685033;85;20990;-90
2022/12/20 02:08:20;;;;;;;4.90;3.85;;;;;;;2.64;84.43;99498.13;1685911;85;21045;-90
2022/12/20 02:11:18;;;;;;;5.60;4.00;;;;;;;2.68;84.37;99486.86;1685264;85;22012;-94
2022/12/20 02:14:47;;;;;;;4.53;3.87;;;;;;;2.68;84.58;99491.57;1685583;85;21042;-96
2022/12/20 02:17:31;;;;;;;4.80;4.15;;;;;;;2.74;84.51;99497.05;1687194;85;21018;-94
2022/12/20 02:20:21;;;;;;;5.10;3.98;;;;;;;2.68;84.34;99490.28;1686377;85;21054;-85
2022/12/20 02:23:27;;;;;;;5.30;4.80;;;;;;;2.65;84.50;99489.50;1684924;85;20966;-94
2022/12/20 02:26:21;;;;;;;6.78;5.95;;;;;;;2.69;84.80;99486.00;1684128;85;21541;-96
2022/12/20 02:29:21;;;;;;;5.83;5.05;;;;;;;2.70;84.68;99477.38;1683842;85;20993;-96
2022/12/20 02:32:11;;;;;;;7.35;5.20;;;;;;;2.70;84.53;99495.42;1684071;85;21082;-95
2022/12/20 02:34:44;;;;;;;8.95;6.80;;;;;;;2.70;84.90;99490.27;1683791;85;21315;-95
2022/12/20 02:37:17;;;;;;;7.78;6.12;;;;;;;2.75;84.92;99493.61;1683991;85;21017;-83
2022/12/20 02:39:49;;;;;;;7.53;6.08;;;;;;;2.80;84.94;99493.09;1683896;85;20990;-95
2022/12/20 02:42:25;;;;;;;7.75;6.85;;;;;;;2.83;85.01;99499.47;1683600;85;21489;-93
2022/12/20 02:45:19;;;;;;;9.35;7.03;;;;;;;2.87;85.03;99477.89;1684301;85;20998;-95
2022/12/20 02:48:06;;;;;;;10.43;8.38;;;;;;;2.91;84.99;99483.83;1683935;85;21842;-92
2022/12/20 02:50:50;;;;;;;12.98;8.03;;;;;;;2.94;84.98;99475.19;1682924;85;21018;-93
2022/12/20 02:53:20;;;;;;;8.43;6.65;;;;;;;2.95;85.06;99475.61;1684543;85;21018;-95
2022/12/20 02:56:12;;;;;;;10.00;8.45;;;;;;;2.99;85.16;99475.95;1662572;85;20984;-94
2022/12/20 02:58:56;;;;;;;11.10;8.85;;;;;;;2.99;85.15;99470.78;1688529;84;21533;-86
2022/12/20 03:01:36;;;;;;;11.33;8.68;;;;;;;3.05;85.26;99470.66;1691301;85;21089;-92
2022/12/20 03:04:09;;;;;;;12.82;9.28;;;;;;;3.08;85.16;99462.85;1691323;85;21042;-94
2022/12/20 03:06:59;;;;;;;11.85;8.65;;;;;;;3.09;85.17;99465.86;1691210;85;21010;-92
2022/12/20 03:09:32;;;;;;;10.70;8.45;;;;;;;3.07;85.20;99461.16;1691049;84;21833;-92
2022/12/20 03:12:05;;;;;;;13.03;9.35;;;;;;;3.09;85.15;99477.47;1691072;85;20992;-92
2022/12/20 03:14:40;;;;;;;12.35;9.63;;;;;;;3.04;85.13;99474.13;1691888;85;20986;-91
2022/12/20 03:17:11;;;;;;;13.85;10.28;;;;;;;3.05;85.18;99480.97;1691370;85;21025;-89
2022/12/20 03:19:42;;;;;;;14.28;11.22;;;;;;;3.06;85.39;99469.34;1657477;86;20959;-95
2022/12/20 03:22:15;;;;;;;14.78;11.25;;;;;;;3.10;85.44;99466.25;1691137;85;21057;-94
2022/12/20 03:24:48;;;;;;;14.33;10.68;;;;;;;3.12;85.45;99461.92;1657463;86;20939;-96
2022/12/20 03:27:24;;;;;;;14.45;10.80;;;;;;;3.14;85.48;99462.75;1691177;85;21510;-95
2022/12/20 03:29:59;;;;;;;13.62;10.65;;;;;;;3.15;85.38;99467.02;1683512;85;21879;-96
2022/12/20 03:32:34;;;;;;;15.10;10.82;;;;;;;3.18;85.46;99466.10;1691058;85;20994;-96
2022/12/20 03:35:04;;;;;;;15.00;11.12;;;;;;;3.14;85.39;99465.33;1691477;85;21113;-90
2022/12/20 03:37:35;;;;;;;14.23;10.35;;;;;;;3.17;85.57;99460.09;1657422;86;20983;-96
2022/12/20 03:40:08;;;;;;;14.80;11.08;;;;;;;3.18;85.61;99448.88;1691269;85;20986;-94
2022/12/20 03:42:39;;;;;;;14.58;10.78;;;;;;;3.20;85.72;99465.19;1666777;85;21002;-90
2022/12/20 03:45:13;;;;;;;15.63;10.80;;;;;;;3.19;85.52;99478.95;1660019;86;21054;-96
2022/12/20 03:47:44;;;;;;;16.17;10.78;;;;;;;3.18;85.63;99477.27;1689970;85;21021;-88
2022/12/20 03:50:16;;;;;;;15.85;11.40;;;;;;;3.20;85.73;99467.77;1657120;86;21077;-92
2022/12/20 03:52:49;;;;;;;13.85;10.78;;;;;;;3.22;85.87;99469.02;1691210;85;21013;-89
2022/12/20 03:55:22;;;;;;;15.43;11.63;;;;;;;3.25;85.90;99468.53;1658122;86;20994;-89
2022/12/20 03:57:54;;;;;;;17.77;12.55;;;;;;;3.26;85.90;99470.21;1691450;84;21029;-87
2022/12/20 04:00:27;;;;;;;14.38;11.57;;;;;;;3.27;85.99;99459.00;1658702;86;20991;-88
2022/12/20 04:03:03;;;;;;;16.32;12.25;;;;;;;3.33;86.07;99464.05;1693711;85;20934;-96
2022/12/20 04:05:34;;;;;;;13.60;10.90;;;;;;;3.33;85.94;99456.31;1659457;86;20940;-83
2022/12/20 04:08:06;;;;;;;16.80;13.05;;;;;;;3.34;86.09;99448.96;1663680;85;21050;-90
2022/12/20 04:17:53;;;;;;;;;;;;;;;;;;;;;
2022/12/20 04:31:25;;;;;;;17.55;12.73;;;;;;;3.31;86.11;99468.39;1406989;102;21165;-85
2022/12/20 04:34:06;;;;;;;18.42;13.53;;;;;;;3.30;86.19;99466.67;1390917;102;21153;-82
2022/12/20 04:36:34;;;;;;;19.17;13.40;;;;;;;3.34;86.23;99467.47;1406687;102;21181;-88
2022/12/20 04:39:07;;;;;;;16.20;12.80;;;;;;;3.35;86.10;99454.52;1406757;102;21157;-92
2022/12/20 04:41:38;;;;;;;23.27;14.73;;;;;;;3.33;86.11;99451.14;1406699;102;22094;-89
2022/12/20 04:44:11;;;;;;;18.87;14.13;;;;;;;3.33;86.11;99451.14;1406905;102;21096;-92
2022/12/20 04:46:42;;;;;;;21.77;14.07;;;;;;;3.35;86.30;99454.52;1407139;102;21138;-93
2022/12/20 04:49:14;;;;;;;20.25;13.95;;;;;;;3.39;86.18;99458.32;1406652;102;21124;-92
2022/12/20 04:51:46;;;;;;;20.15;15.78;;;;;;;3.34;86.10;99455.41;1461635;98;21110;-95
2022/12/20 04:54:19;;;;;;;15.50;12.73;;;;;;;3.35;86.28;99457.10;1467144;98;21579;-89
2022/12/20 04:56:51;;;;;;;15.00;11.88;;;;;;;3.34;86.09;99458.00;1470769;96;21566;-90
2022/12/20 04:59:22;;;;;;;18.20;12.40;;;;;;;3.34;86.21;99467.47;1483246;95;21113;-89
2022/12/20 05:01:55;;;;;;;18.00;13.40;;;;;;;3.34;86.30;99458.00;1463324;97;21906;-91
2022/12/20 05:04:30;;;;;;;18.57;13.08;;;;;;;3.36;86.41;99458.82;1534557;90;21049;-88
2022/12/20 05:07:04;;;;;;;18.52;13.55;;;;;;;3.43;86.47;99452.22;1584048;90;21032;-92
2022/12/20 05:09:35;;;;;;;19.25;14.43;;;;;;;3.45;86.48;99444.02;1584125;90;21085;-92
2022/12/20 05:12:06;;;;;;;20.60;13.90;;;;;;;3.45;86.40;99444.02;1584639;90;21315;-94
2022/12/20 05:14:39;;;;;;;19.57;13.88;;;;;;;3.42;86.29;99445.34;1583965;90;21877;-91
2022/12/20 05:17:14;;;;;;;19.77;13.83;;;;;;;3.43;86.45;99456.09;1617863;86;21810;-93
2022/12/20 05:19:48;;;;;;;20.97;13.55;;;;;;;3.42;86.40;99454.38;1662942;86;21069;-93
2022/12/20 05:28:02;;;;;;;19.15;13.62;;;;;;;3.40;86.54;99445.84;1626044;88;21498;-88
2022/12/20 05:30:34;;;;;;;20.65;14.43;;;;;;;3.38;86.45;99450.19;1626091;88;21094;-87
2022/12/20 05:33:07;;;;;;;19.48;14.38;;;;;;;3.39;86.60;99460.91;1626132;88;21838;-91
2022/12/20 05:35:39;;;;;;;22.98;15.60;;;;;;;3.41;86.69;99459.98;1626051;88;21026;-89
2022/12/20 05:38:16;;;;;;;23.50;15.70;;;;;;;3.40;86.44;99467.78;1626342;88;20963;-92
2022/12/20 05:40:52;;;;;;;19.92;14.83;;;;;;;3.38;86.59;99474.70;1626749;88;21042;-89
2022/12/20 05:43:23;;;;;;;21.93;15.13;;;;;;;3.40;86.68;99475.52;1626440;88;21010;-93
2022/12/20 05:45:54;;;;;;;23.45;16.40;;;;;;;3.41;86.67;99473.34;1626385;88;20979;-95
2022/12/20 05:48:28;;;;;;;19.80;14.38;;;;;;;3.41;86.67;99477.21;1626146;88;21058;-91
2022/12/20 05:51:03;;;;;;;21.55;14.90;;;;;;;3.40;86.74;99476.81;1625881;88;21395;-94
2022/12/20 05:53:34;;;;;;;22.55;15.83;;;;;;;3.43;86.81;99476.74;1626137;88;21089;-90
2022/12/20 05:56:10;;;;;;;21.87;14.45;;;;;;;3.46;86.77;99476.67;1608406;88;20999;-94
2022/12/20 05:58:40;;;;;;;21.50;15.25;;;;;;;3.46;86.84;99476.67;1634173;86;21058;-95
2022/12/20 06:01:12;;;;;;;26.45;15.63;;;;;;;3.46;86.87;99474.09;1633301;88;21022;-94
2022/12/20 06:03:45;;;;;;;23.25;15.68;;;;;;;3.49;86.91;99474.02;1661574;86;21017;-96
2022/12/20 06:06:17;;;;;;;24.90;16.85;;;;;;;3.46;86.79;99474.94;1661681;86;20975;-90
2022/12/20 06:08:51;;;;;;;20.97;15.65;;;;;;;3.45;86.81;99481.44;1633197;88;21053;-93
2022/12/20 06:11:25;;;;;;;25.30;16.52;;;;;;;3.40;86.72;99476.81;1661745;86;21093;-91
2022/12/20 06:13:56;;;;;;;24.25;16.67;;;;;;;3.42;87.00;99475.02;1662798;86;21021;-92
2022/12/20 06:16:28;;;;;;;25.25;16.73;;;;;;;3.44;86.92;99472.82;1663199;86;21074;-94
2022/12/20 06:19:01;;;;;;;23.47;16.70;;;;;;;3.43;87.01;99476.74;1657213;86;21042;-90
2022/12/20 06:21:36;;;;;;;26.48;17.25;;;;;;;3.45;86.99;99475.83;1656899;86;20982;-94
2022/12/20 06:24:08;;;;;;;26.55;17.70;;;;;;;3.47;87.05;99473.20;1657079;86;20979;-87
2022/12/20 06:26:40;;;;;;;27.00;17.30;;;;;;;3.47;87.10;99465.45;1657017;86;21070;-96
2022/12/20 06:29:16;;;;;;;27.90;17.17;;;;;;;3.47;87.11;99475.78;1656880;86;20951;-91
2022/12/20 06:31:49;;;;;;;26.23;18.25;;;;;;;3.47;87.19;99474.04;1656724;86;21022;-89
2022/12/20 06:34:22;;;;;;;29.30;20.12;;;;;;;3.51;87.27;99469.68;1657217;86;21114;-90
2022/12/20 06:36:54;;;;;;;27.65;18.55;;;;;;;3.52;87.29;99472.21;1657540;86;20979;-90
2022/12/20 06:39:25;;;;;;;33.00;17.60;;;;;;;3.52;87.23;99459.30;1657988;86;20947;-89
2022/12/20 06:41:57;;;;;;;26.85;18.00;;;;;;;3.53;87.22;99468.77;1638683;86;21612;-87
2022/12/20 06:44:29;;;;;;;25.20;17.25;;;;;;;3.55;87.19;99470.00;1657316;86;21062;-91
2022/12/20 06:47:02;;;;;;;27.48;17.82;;;;;;;3.55;87.31;99466.13;1638473;86;21561;-88
2022/12/20 06:49:34;;;;;;;30.20;18.57;;;;;;;3.56;87.25;99471.28;1656866;86;21041;-90
2022/12/20 06:52:06;;;;;;;31.60;18.80;;;;;;;3.56;87.28;99467.84;1656125;86;21086;-88
2022/12/20 06:54:40;;;;;;;28.50;20.80;;;;;;;3.53;86.97;99473.09;1644484;86;21074;-91
2022/12/20 06:57:12;;;;;;;28.52;17.95;;;;;;;3.47;87.12;99467.59;1655771;86;21327;-87
2022/12/20 06:59:45;;;;;;;28.30;16.75;;;;;;;3.48;87.24;99473.63;1656823;86;21089;-91
2022/12/20 07:02:21;;;;;;;28.38;17.73;;;;;;;3.51;87.39;99472.27;1656895;86;21030;-88
2022/12/20 07:04:52;;;;;;;34.50;18.02;;;;;;;3.53;87.37;99465.34;1656939;86;20971;-90
2022/12/20 07:07:25;;;;;;;30.68;19.52;;;;;;;3.55;87.50;99466.13;1657046;86;20999;-89
2022/12/20 07:09:58;;;;;;;30.57;20.23;;;;;;;3.57;87.50;99475.55;1657029;86;21763;-92
2022/12/20 07:12:37;;;;;;;30.20;18.85;;;;;;;3.58;87.51;99478.97;1657239;86;21031;-88
2022/12/20 07:15:20;;;;;;;29.37;18.45;;;;;;;3.61;87.51;99473.73;1656918;86;20971;-83
2022/12/20 07:17:50;;;;;;;32.13;19.73;;;;;;;3.60;87.44;99474.63;1643215;86;22000;-93
2022/12/20 07:20:43;;;;;;;38.78;21.73;;;;;;;3.64;87.56;99487.89;1658506;86;22012;-87
2022/12/20 07:23:03;;;;;;;36.08;20.02;;;;;;;3.63;87.55;99483.59;1651746;86;21078;-87
2022/12/20 07:25:34;;;;;;;28.57;18.52;;;;;;;3.67;87.64;99495.56;1647164;86;21034;-85
2022/12/20 07:28:08;;;;;;;33.33;19.48;;;;;;;3.68;87.55;99493.38;1658886;86;21010;-94
2022/12/20 07:30:42;;;;;;;34.33;21.57;;;;;;;3.71;87.62;99497.17;1647349;86;21803;-93
2022/12/20 07:33:13;;;;;;;32.48;19.90;;;;;;;3.75;87.71;99488.91;1658668;86;21002;-96
2022/12/20 07:38:37;;;;;;;36.05;22.70;;;;;;;3.76;87.60;99491.92;1541631;92;21164;-91
2022/12/20 07:41:22;;;;;;;31.82;20.92;;;;;;;3.77;87.63;99496.19;1539165;92;21333;-93
2022/12/20 07:43:59;;;;;;;30.62;20.08;;;;;;;3.77;87.64;99489.28;1540244;93;21085;-96
2022/12/20 07:46:31;;;;;;;35.50;20.10;;;;;;;3.79;87.68;99493.98;1540525;93;21101;-89
2022/12/20 07:49:04;;;;;;;32.65;20.30;;;;;;;3.80;87.59;99494.82;1539494;93;21081;-91
2022/12/20 07:51:38;;;;;;;36.28;20.80;;;;;;;3.80;87.68;99490.50;1539084;93;21049;-95
2022/12/20 07:54:54;;;;;;;32.73;19.70;;;;;;;3.79;87.53;99491.39;1538951;93;21937;-83
2022/12/20 07:57:24;;;;;;;32.53;21.48;;;;;;;3.77;87.42;99490.58;1532779;93;21140;-93
2022/12/20 08:00:00;;;;;;;34.45;21.42;;;;;;;3.72;87.63;99497.57;1533339;92;22032;-90
2022/12/20 08:02:42;;;;;;;33.63;21.97;;;;;;;3.79;87.77;99500.44;1538382;92;21015;-88
2022/12/20 08:05:15;;;;;;;40.12;25.40;;;;;;;3.86;87.81;99496.41;1533716;93;21053;-90
2022/12/20 08:07:48;;;;;;;32.30;20.17;;;;;;;3.86;87.74;99488.66;1532491;93;21103;-87
2022/12/20 08:10:22;;;;;;;45.78;30.05;;;;;;;3.88;87.66;99484.31;1514876;93;21653;-94
2022/12/20 08:13:01;;;;;;;34.38;22.42;;;;;;;3.90;87.74;99489.86;1537786;93;21115;-89
2022/12/20 08:15:44;;;;;;;;;;;;;;;;;;;;;
2022/12/20 08:18:07;;;;;;;33.23;19.32;;;;;;;3.95;87.79;99501.35;1514933;93;21941;-89
2022/12/20 08:28:02;;;;;;;32.10;20.82;;;;;;;4.16;88.00;99508.59;1540071;92;21958;-87
2022/12/20 08:30:35;;;;;;;30.90;19.40;;;;;;;4.18;87.83;99505.53;1539260;93;21930;-89
2022/12/20 08:33:07;;;;;;;28.98;19.17;;;;;;;4.16;87.78;99503.42;1539620;93;21071;-86
2022/12/20 08:35:41;;;;;;;27.95;18.60;;;;;;;4.20;88.02;99507.65;1539449;93;21041;-84
2022/12/20 08:38:11;;;;;;;28.35;19.15;;;;;;;4.23;87.88;99508.86;1539962;93;21062;-87
2022/12/20 08:40:43;;;;;;;27.48;19.15;;;;;;;4.26;87.98;99507.49;1539437;93;21054;-86
2022/12/20 08:43:13;;;;;;;28.35;18.73;;;;;;;4.30;88.03;99507.41;1539590;93;21538;-86
2022/12/20 08:45:45;;;;;;;26.55;19.02;;;;;;;4.31;88.01;99506.52;1519359;93;21079;-83
2022/12/20 08:48:20;;;;;;;34.60;23.67;;;;;;;4.35;88.17;99502.98;1539562;93;21066;-89
2022/12/20 08:50:59;;;;;;;30.57;20.85;;;;;;;4.41;88.19;99500.23;1539391;93;21070;-84
2022/12/20 08:53:35;;;;;;;29.87;19.00;;;;;;;4.51;88.39;99499.12;1551116;90;21003;-84
2022/12/20 08:56:18;;;;;;;26.68;16.48;;;;;;;4.53;88.04;99501.20;1595859;88;21553;-86
2022/12/20 08:58:51;;;;;;;30.08;19.55;;;;;;;4.49;87.97;99493.13;1595907;90;21066;-87
2022/12/20 09:01:25;;;;;;;30.35;20.23;;;;;;;4.56;88.22;99486.89;1606094;89;21021;-91
2022/12/20 09:03:58;;;;;;;32.23;19.57;;;;;;;4.56;87.91;99497.23;1583899;89;21925;-86
2022/12/20 09:06:31;;;;;;;28.38;18.85;;;;;;;4.56;88.02;99506.28;1582043;88;21898;-88
2022/12/20 09:09:07;;;;;;;36.48;22.27;;;;;;;4.54;87.87;99493.86;1582008;90;21080;-91
2022/12/20 09:11:45;;;;;;;28.00;19.55;;;;;;;4.55;88.03;99500.72;1581718;90;21563;-87
2022/12/20 09:14:21;;;;;;;29.85;19.37;;;;;;;4.60;88.11;99487.23;1581681;90;21042;-95
2022/12/20 09:16:54;;;;;;;28.05;19.75;;;;;;;4.67;88.23;99488.75;1582493;90;21898;-90
2022/12/20 09:19:26;;;;;;;27.73;19.52;;;;;;;4.70;87.97;99487.40;1581876;90;21030;-87
2022/12/20 09:21:59;;;;;;;27.00;18.80;;;;;;;4.78;88.28;99481.99;1582004;90;21716;-85
2022/12/20 09:24:35;;;;;;;28.15;17.95;;;;;;;4.86;88.08;99489.55;1585620;88;21295;-85
2022/12/20 09:27:04;;;;;;;26.62;18.45;;;;;;;4.89;88.11;99485.58;1686237;85;21014;-84
2022/12/20 09:29:40;;;;;;;43.10;26.75;;;;;;;4.86;87.67;99486.97;1685316;85;20994;-86
2022/12/20 09:32:13;;;;;;;51.70;31.10;;;;;;;4.82;87.82;99480.20;1684890;85;21861;-86
2022/12/20 09:38:02;;;;;;;37.90;25.40;;;;;;;4.94;88.30;99479.84;1657977;85;21533;-86
2022/12/20 09:40:37;;;;;;;36.65;25.25;;;;;;;4.96;87.94;99481.08;1683854;85;20986;-86
2022/12/20 09:43:11;;;;;;;34.80;25.27;;;;;;;4.92;87.66;99491.96;1686545;85;20990;-91
2022/12/20 09:45:44;;;;;;;30.23;20.95;;;;;;;4.88;87.79;99480.02;1686506;85;21026;-90
2022/12/20 09:48:25;;;;;;;38.78;23.00;;;;;;;4.85;87.90;99472.34;1685741;85;21123;-91
2022/12/20 09:51:20;;;;;;;31.52;22.40;;;;;;;4.87;87.83;99480.89;1685212;85;21022;-92
2022/12/20 09:54:19;;;;;;;29.10;20.05;;;;;;;4.81;87.76;99483.66;1685481;85;21050;-90
2022/12/20 09:57:01;;;;;;;30.30;19.60;;;;;;;4.79;87.64;99485.42;1685587;85;21018;-90
2022/12/20 09:59:47;;;;;;;31.55;20.88;;;;;;;4.69;87.72;99476.63;1680168;84;21912;-91
2022/12/20 10:02:20;;;;;;;30.70;20.15;;;;;;;4.73;87.71;99473.95;1680837;85;21105;-93
2022/12/20 10:04:54;;;;;;;28.02;19.27;;;;;;;4.70;87.81;99479.64;1681535;85;21120;-93
2022/12/20 10:07:52;;;;;;;28.65;18.55;;;;;;;4.79;87.93;99476.37;1630928;87;21049;-91
2022/12/20 10:10:25;;;;;;;;;;;;;;;4.74;87.66;99476.97;1654018;87;21078;-91
2022/12/20 10:13:09;;;;;;;30.92;18.92;;;;;;;4.78;87.64;99482.45;1651375;87;20145;-92
2022/12/20 10:15:44;;;;;;;25.43;18.48;;;;;;;4.75;87.70;99477.36;1597429;90;21038;-87
2022/12/20 10:18:38;;;;;;;29.37;19.23;;;;;;;4.76;87.74;99475.16;1561484;92;21533;-91
2022/12/20 10:21:38;;;;;;;28.02;18.77;;;;;;;4.76;87.68;99462.23;1554528;91;21065;-88
2022/12/20 10:24:27;;;;;;;26.30;18.35;;;;;;;4.76;87.64;99477.75;1525005;94;21067;-87
2022/12/20 10:27:03;;;;;;;22.85;16.25;;;;;;;4.79;87.56;99472.48;1525016;94;21584;-87
2022/12/20 10:29:34;;;;;;;23.73;16.62;;;;;;;4.84;88.25;99462.87;1523947;94;21173;-83
2022/12/20 10:32:13;;;;;;;21.35;16.80;;;;;;;4.94;88.01;99461.73;1524902;94;21128;-85
2022/12/20 10:35:03;;;;;;;30.08;17.52;;;;;;;5.03;87.74;99452.40;1524867;94;21101;-86
2022/12/20 10:37:35;;;;;;;25.77;18.17;;;;;;;5.00;87.87;99448.61;1507097;95;21093;-90
2022/12/20 10:40:11;;;;;;;25.82;17.98;;;;;;;5.12;87.92;99457.30;1508880;95;21145;-86
2022/12/20 10:42:45;;;;;;;26.07;18.07;;;;;;;5.20;88.01;99444.59;1507079;95;21085;-86
2022/12/20 10:45:20;;;;;;;28.57;17.40;;;;;;;5.27;87.80;99449.55;1508802;95;21037;-87
2022/12/20 10:47:56;;;;;;;29.82;18.02;;;;;;;5.38;88.01;99457.00;1508035;95;21097;-87
2022/12/20 10:50:28;;;;;;;53.30;31.75;;;;;;;5.42;87.79;99444.80;1508678;95;21158;-93
2022/12/20 11:04:37;;;;;;;32.05;19.05;;;;;;;5.43;87.60;99436.13;1551892;92;21125;-90
2022/12/20 11:26:08;;;;;;;33.42;19.62;;;;;;;5.29;87.62;99429.65;1407376;98;21118;-88
2022/12/20 11:29:27;;;;;;;33.50;18.20;;;;;;;5.27;87.42;99425.41;1409128;101;21154;-88
2022/12/20 11:32:22;;;;;;;34.38;20.80;;;;;;;5.25;87.29;99422.02;1479496;95;21038;-88
2022/12/20 11:39:43;;;;;;;34.63;19.25;;;;;;;5.19;87.29;99417.03;1499043;95;21088;-87
2022/12/20 11:42:36;;;;;;;32.60;19.10;;;;;;;5.26;87.63;99419.36;1498704;95;21082;-88
2022/12/20 11:45:32;;;;;;;36.30;20.43;;;;;;;5.30;87.48;99416.25;1493938;95;21114;-86
2022/12/20 11:48:08;;;;;;;30.32;19.45;;;;;;;5.32;87.54;99418.33;1471887;97;21023;-88
2022/12/20 11:50:49;;;;;;;30.95;20.37;;;;;;;5.35;87.41;99410.49;1452200;97;21098;-87
2022/12/20 11:53:53;;;;;;;28.10;18.92;;;;;;;5.36;87.46;99417.36;1459523;97;21394;-89
2022/12/20 11:56:39;;;;;;;29.05;20.15;;;;;;;5.36;87.45;99415.61;1450778;97;21103;-84
2022/12/20 11:59:41;;;;;;;34.40;22.13;;;;;;;5.38;87.38;99411.69;1477616;96;21109;-84
2022/12/20 12:02:30;;;;;;;25.82;17.70;;;;;;;5.37;87.39;99406.09;1488209;96;21086;-85
2022/12/20 12:05:07;;;;;;;28.73;17.67;;;;;;;5.37;87.33;99398.33;1488380;96;21094;-84
2022/12/20 12:07:42;;;;;;;23.57;16.45;;;;;;;5.35;87.38;99400.14;1486898;96;21163;-87
2022/12/20 12:10:31;;;;;;;26.35;15.38;;;;;;;5.41;87.69;99403.83;1487650;96;21182;-85
2022/12/20 12:13:17;;;;;;;28.70;18.85;;;;;;;5.48;87.64;99404.02;1487718;96;21940;-87
2022/12/20 12:16:02;;;;;;;27.02;19.17;;;;;;;5.48;87.44;99407.90;1487551;96;21110;-87
2022/12/20 12:18:38;;;;;;;23.73;15.95;;;;;;;5.48;87.44;99405.31;1488123;96;21706;-85
2022/12/20 12:21:35;;;;;;;;;;;;;;;;;;;;;
2022/12/20 12:24:31;;;;;;;;;;;;;;;;;;;;;
2022/12/20 12:27:14;;;;;;;;;;;;;;;;;;;;;
2022/12/20 12:29:55;;;;;;;;;;;;;;;;;;;;;
2022/12/20 12:36:25;;;;;;;;;;;;;;;;;;;;;
2022/12/20 12:39:03;;;;;;;27.45;17.07;;;;;;;5.51;87.31;99381.90;1373125;104;22005;-87
2022/12/20 12:41:50;;;;;;;;;;;;;;;5.53;87.44;99373.64;1374879;104;21165;-87
2022/12/20 12:49:20;;;;;;;25.45;17.30;;;;;;;5.60;87.55;99376.45;1372832;104;21861;-89
2022/12/20 12:52:19;;;;;;;24.50;16.15;;;;;;;5.62;87.47;99375.09;1372094;104;21546;-90
2022/12/20 12:59:16;;;;;;;28.83;17.82;;;;;;;5.54;87.28;99371.89;1372930;104;21282;-96
2022/12/20 13:02:13;;;;;;;26.70;16.10;;;;;;;5.51;87.19;99382.36;1338471;106;21850;-90
2022/12/20 13:05:15;;;;;;;26.75;17.57;;;;;;;5.43;87.03;99385.18;1347767;105;21152;-94
2022/12/20 13:19:12;;;;;;;26.17;16.25;;;;;;;5.23;86.86;99395.31;1370425;105;21166;-88
2022/12/20 13:24:52;;;;;;;25.97;16.77;;;;;;;5.09;86.84;99404.34;1390972;103;21181;-89
2022/12/20 13:27:37;;;;;;;22.90;16.27;;;;;;;5.05;86.85;99405.80;1351636;102;21144;-92
2022/12/20 13:30:16;;;;;;;24.50;16.82;;;;;;;5.05;86.89;99394.98;1341354;107;22040;-89
2022/12/20 13:33:04;;;;;;;25.37;16.10;;;;;;;5.03;86.83;99394.17;1344112;106;21272;-90
2022/12/20 13:36:04;;;;;;;25.68;17.80;;;;;;;5.03;86.79;99401.94;1343636;107;21185;-89
2022/12/20 13:39:01;;;;;;;24.70;16.60;;;;;;;5.01;86.87;99397.70;1371462;99;21191;-89
2022/12/20 13:42:13;;;;;;;;;;;;;;;;;;;;;
2022/12/20 13:48:01;;;;;;;23.32;15.98;;;;;;;4.93;86.66;99389.73;1464258;95;21072;-89
2022/12/20 13:50:40;;;;;;;22.77;16.12;;;;;;;4.87;86.66;99387.76;1503327;95;21104;-92
2022/12/20 13:53:40;;;;;;;;;;;;;;;;;;;;;
2022/12/20 13:56:29;;;;;;;23.45;15.65;;;;;;;4.74;86.39;99382.11;1498241;95;21033;-88
2022/12/20 13:59:11;;;;;;;22.55;16.67;;;;;;;4.67;86.64;99380.58;1502838;95;21068;-87
2022/12/20 14:01:49;;;;;;;20.82;15.48;;;;;;;4.64;86.57;99378.92;1591737;86;21077;-87
2022/12/20 14:04:24;;;;;;;23.32;15.00;;;;;;;4.60;86.65;99378.63;1627362;88;21098;-87
2022/12/20 14:07:12;;;;;;;25.32;15.78;;;;;;;4.57;86.72;99372.25;1662339;86;21068;-89
2022/12/20 14:09:47;;;;;;;24.37;14.98;;;;;;;4.55;86.76;99363.68;1660930;86;21137;-88
2022/12/20 14:12:22;;;;;;;24.00;15.58;;;;;;;4.52;86.62;99360.34;1629970;88;21467;-89